createdAt,value
2023-01-06T00:01:30.189Z,101602.59
2023-01-06T00:04:34.341Z,101617.44
2023-01-06T00:07:38.367Z,101587.66
2023-01-06T00:10:42.616Z,101466.16
2023-01-06T00:13:46.428Z,101596.50
2023-01-06T00:16:52.087Z,101608.34
2023-01-06T00:19:58.119Z,101606.69
2023-01-06T00:23:03.523Z,101592.94
2023-01-06T00:26:12.169Z,101611.84
2023-01-06T00:29:16.579Z,101525.66
2023-01-06T00:32:21.738Z,101556.53
2023-01-06T00:35:25.708Z,101612.91
2023-01-06T00:38:30.137Z,101585.38
2023-01-06T00:41:52.364Z,101614.91
2023-01-06T00:44:56.258Z,101606.00
2023-01-06T00:48:02.661Z,101618.84
2023-01-06T00:51:06.932Z,101618.72
2023-01-06T00:54:13.693Z,101620.72
2023-01-06T00:57:17.553Z,101600.72
2023-01-06T01:00:22.483Z,101602.25
2023-01-06T01:03:26.880Z,101603.91
2023-01-06T01:06:31.023Z,101574.94
2023-01-06T01:09:35.314Z,101608.50
2023-01-06T01:12:39.305Z,101610.66
2023-01-06T01:15:43.264Z,101605.00
2023-01-06T01:18:47.557Z,101605.50
2023-01-06T01:21:51.793Z,101598.41
2023-01-06T01:24:55.724Z,101606.06
2023-01-06T01:27:59.932Z,101583.41
2023-01-06T01:31:05.015Z,101577.16
2023-01-06T01:34:10.574Z,101594.50
2023-01-06T01:37:14.733Z,101593.84
2023-01-06T01:40:18.951Z,101573.69
2023-01-06T01:43:22.985Z,101565.03
2023-01-06T01:46:41.797Z,101547.72
2023-01-06T01:49:51.755Z,101573.72
2023-01-06T01:53:01.482Z,101565.31
2023-01-06T01:56:09.614Z,101555.84
2023-01-06T01:59:20.631Z,101561.31
2023-01-06T02:02:25.354Z,101522.06
2023-01-06T02:05:30.844Z,101545.19
2023-01-06T02:08:42.952Z,101547.28
2023-01-06T02:11:51.873Z,101532.09
2023-01-06T02:14:55.836Z,101485.91
2023-01-06T02:18:14.534Z,101518.16
2023-01-06T02:21:35.294Z,101515.47
2023-01-06T02:25:08.197Z,101511.84
2023-01-06T02:28:22.282Z,101507.94
2023-01-06T02:31:45.719Z,101504.03
2023-01-06T02:35:18.453Z,101489.38
2023-01-06T02:38:43.256Z,101489.41
2023-01-06T02:42:26.289Z,101490.25
2023-01-06T02:45:39.510Z,101482.66
2023-01-06T02:48:53.538Z,101466.56
2023-01-06T02:52:06.720Z,101446.69
2023-01-06T02:55:33.169Z,101466.63
2023-01-06T02:58:54.556Z,101447.69
2023-01-06T03:02:01.564Z,101460.72
2023-01-06T03:05:09.653Z,101447.97
2023-01-06T03:08:25.588Z,101445.28
2023-01-06T03:11:34.541Z,101421.25
2023-01-06T03:14:45.438Z,101427.75
2023-01-06T03:17:50.252Z,101425.59
2023-01-06T03:21:00.587Z,101413.06
2023-01-06T03:24:08.096Z,101426.31
2023-01-06T03:27:12.613Z,101410.81
2023-01-06T03:30:18.543Z,101412.97
2023-01-06T03:33:30.350Z,101414.09
2023-01-06T03:36:49.648Z,101422.19
2023-01-06T03:40:06.616Z,101415.88
2023-01-06T03:43:40.248Z,101403.41
2023-01-06T03:46:54.198Z,101396.78
2023-01-06T03:50:24.255Z,101367.34
2023-01-06T03:53:55.550Z,101385.66
2023-01-06T03:57:19.966Z,101384.41
2023-01-06T04:00:29.954Z,101360.91
2023-01-06T04:03:39.474Z,101364.69
2023-01-06T04:06:44.576Z,101358.34
2023-01-06T04:09:48.888Z,101344.44
2023-01-06T04:12:53.731Z,101371.94
2023-01-06T04:16:03.693Z,101361.53
2023-01-06T04:19:12.521Z,101355.72
2023-01-06T04:22:16.879Z,101354.78
2023-01-06T04:25:21.562Z,101344.19
2023-01-06T04:28:25.768Z,101285.97
2023-01-06T04:31:35.402Z,101354.66
2023-01-06T04:34:40.103Z,101353.00
2023-01-06T04:37:44.888Z,101340.84
2023-01-06T04:40:48.686Z,101346.84
2023-01-06T04:43:52.622Z,101348.03
2023-01-06T04:46:56.333Z,101334.75
2023-01-06T04:50:00.675Z,101313.00
2023-01-06T04:53:05.577Z,101331.66
2023-01-06T04:56:12.601Z,101325.69
2023-01-06T04:59:18.688Z,101333.63
2023-01-06T05:02:22.602Z,101343.63
2023-01-06T05:05:28.052Z,101348.31
2023-01-06T05:08:33.579Z,101333.53
2023-01-06T05:11:37.405Z,101340.91
2023-01-06T05:14:41.263Z,101337.66
2023-01-06T05:17:45.751Z,101322.47
2023-01-06T05:20:56.481Z,101328.53
2023-01-06T05:24:00.719Z,101337.50
2023-01-06T05:27:05.199Z,101336.19
2023-01-06T05:30:09.565Z,101319.25
2023-01-06T05:33:13.676Z,101322.94
2023-01-06T05:36:19.430Z,101322.75
2023-01-06T05:39:24.000Z,101330.09
2023-01-06T05:42:27.874Z,101327.84
2023-01-06T05:45:31.830Z,101300.34
2023-01-06T05:48:36.341Z,101312.78
2023-01-06T05:51:40.216Z,101323.06
2023-01-06T05:54:44.003Z,101296.38
2023-01-06T05:57:48.418Z,101327.38
2023-01-06T06:00:52.208Z,101320.16
2023-01-06T06:03:57.078Z,101335.72
2023-01-06T06:07:01.037Z,101344.69
2023-01-06T06:10:06.183Z,101341.19
2023-01-06T06:13:10.118Z,101351.75
2023-01-06T06:16:17.080Z,101360.72
2023-01-06T06:19:21.493Z,101345.25
2023-01-06T06:22:25.590Z,101344.72
2023-01-06T06:25:30.415Z,101354.09
2023-01-06T06:28:37.564Z,101343.75
2023-01-06T06:31:41.563Z,101338.41
2023-01-06T06:34:46.569Z,101348.31
2023-01-06T06:37:54.515Z,101355.47
2023-01-06T06:40:58.477Z,101334.94
2023-01-06T06:44:02.498Z,101339.34
2023-01-06T06:47:06.478Z,101348.50
2023-01-06T06:50:12.568Z,101333.03
2023-01-06T06:53:16.454Z,101346.00
2023-01-06T06:56:22.415Z,101350.25
2023-01-06T06:59:27.008Z,101329.72
2023-01-06T07:02:31.047Z,101345.59
2023-01-06T07:05:35.554Z,101320.50
2023-01-06T07:08:39.888Z,101328.88
2023-01-06T07:11:43.892Z,101330.63
2023-01-06T07:14:47.785Z,101324.72
2023-01-06T07:17:51.734Z,101327.22
2023-01-06T07:20:59.270Z,101353.00
2023-01-06T07:24:03.385Z,101335.97
2023-01-06T07:27:07.188Z,101351.47
2023-01-06T07:30:16.927Z,101311.81
2023-01-06T07:33:21.497Z,101350.88
2023-01-06T07:36:25.513Z,101356.09
2023-01-06T07:39:29.949Z,101350.91
2023-01-06T07:42:33.795Z,101329.34
2023-01-06T07:45:38.037Z,101343.56
2023-01-06T07:48:43.007Z,101344.69
2023-01-06T07:51:47.623Z,101343.56
2023-01-06T07:54:51.520Z,101322.59
2023-01-06T07:57:55.565Z,101281.59
2023-01-06T08:01:05.577Z,101343.50
2023-01-06T08:04:09.425Z,101306.50
2023-01-06T08:07:14.925Z,101335.84
2023-01-06T08:10:18.807Z,101345.75
2023-01-06T08:13:22.648Z,101337.53
2023-01-06T08:16:26.547Z,101357.66
2023-01-06T08:19:30.876Z,101337.19
2023-01-06T08:22:35.040Z,101360.94
2023-01-06T08:25:39.228Z,101362.09
2023-01-06T08:28:44.838Z,101343.88
2023-01-06T08:31:49.454Z,101349.34
2023-01-06T08:34:53.613Z,101364.78
2023-01-06T08:37:58.037Z,101362.47
2023-01-06T08:41:03.490Z,101345.28
2023-01-06T08:44:08.243Z,101369.63
2023-01-06T08:47:12.161Z,101379.69
2023-01-06T08:50:16.569Z,101358.09
2023-01-06T08:53:20.466Z,101378.63
2023-01-06T08:56:27.562Z,101365.31
2023-01-06T08:59:56.930Z,101381.72
2023-01-06T09:03:01.288Z,101380.03
2023-01-06T09:06:30.604Z,101376.66
2023-01-06T09:09:35.493Z,101388.66
2023-01-06T09:13:04.313Z,101385.13
2023-01-06T09:19:37.172Z,101394.91
2023-01-06T09:23:08.005Z,101385.72
2023-01-06T09:26:12.857Z,101386.47
2023-01-06T09:29:43.031Z,101396.13
2023-01-06T09:32:47.556Z,101371.47
2023-01-06T09:43:09.272Z,101408.47
2023-01-06T09:46:21.636Z,101385.91
2023-01-06T09:49:34.355Z,101423.63
2023-01-06T09:52:57.274Z,101427.88
2023-01-06T09:56:09.300Z,101427.16
2023-01-06T09:59:35.911Z,101411.44
2023-01-06T10:03:12.061Z,101421.22
2023-01-06T10:07:01.781Z,101417.81
2023-01-06T10:11:06.293Z,101425.22
2023-01-06T10:14:40.118Z,101413.34
2023-01-06T10:17:53.774Z,101411.03
2023-01-06T10:21:37.550Z,101417.72
2023-01-06T10:25:14.924Z,101419.59
2023-01-06T10:28:42.807Z,101409.44
2023-01-06T10:32:17.636Z,101433.13
2023-01-06T10:35:25.390Z,101439.28
2023-01-06T10:38:56.175Z,101440.97
2023-01-06T10:42:56.935Z,101429.66
2023-01-06T10:46:01.846Z,101448.47
2023-01-06T10:49:13.687Z,101443.88
2023-01-06T10:56:56.165Z,101450.28
2023-01-06T11:00:26.762Z,101452.28
2023-01-06T11:03:34.120Z,101460.38
2023-01-06T11:07:04.883Z,101455.16
2023-01-06T11:10:28.859Z,101449.34
2023-01-06T11:13:39.807Z,101455.31
2023-01-06T11:16:53.924Z,101439.28
2023-01-06T11:20:28.237Z,101424.53
2023-01-06T11:23:33.815Z,101415.16
2023-01-06T11:27:17.552Z,101458.56
2023-01-06T11:30:30.962Z,101436.44
2023-01-06T11:33:49.230Z,101435.81
2023-01-06T11:36:54.571Z,101421.78
2023-01-06T11:40:11.220Z,101401.81
2023-01-06T11:43:23.238Z,101428.53
2023-01-06T11:46:48.030Z,101456.88
2023-01-06T11:50:21.637Z,101449.44
2023-01-06T11:53:27.090Z,101420.09
2023-01-06T12:00:07.829Z,101352.47
2023-01-06T12:03:12.337Z,101443.28
2023-01-06T12:06:35.478Z,101334.59
2023-01-06T12:09:46.220Z,101433.31
2023-01-06T12:12:51.440Z,101390.56
2023-01-06T12:16:07.932Z,101439.97
2023-01-06T12:19:52.667Z,101448.13
2023-01-06T12:23:12.512Z,101430.16
2023-01-06T12:26:23.838Z,101406.00
2023-01-06T12:29:28.817Z,101423.97
2023-01-06T12:32:55.578Z,101450.09
2023-01-06T12:36:19.971Z,101452.06
2023-01-06T12:39:51.983Z,101456.50
2023-01-06T12:43:23.710Z,101455.53
2023-01-06T12:47:01.260Z,101451.06
2023-01-06T12:50:49.485Z,101449.63
2023-01-06T12:57:31.641Z,101453.91
2023-01-06T13:01:02.267Z,101448.53
2023-01-06T13:04:30.306Z,101445.13
2023-01-06T13:08:03.181Z,101448.19
2023-01-06T13:11:15.245Z,101425.38
2023-01-06T13:14:34.644Z,101441.53
2023-01-06T13:17:48.751Z,101419.03
2023-01-06T13:21:13.517Z,101445.97
2023-01-06T13:24:24.720Z,101434.06
2023-01-06T13:27:48.297Z,101440.38
2023-01-06T13:31:42.544Z,101435.00
2023-01-06T13:35:13.756Z,101426.66
2023-01-06T13:38:41.486Z,101425.22
2023-01-06T13:41:49.974Z,101450.53
2023-01-06T13:44:54.197Z,101430.81
2023-01-06T13:48:01.398Z,101453.81
2023-01-06T13:51:17.754Z,101463.44
2023-01-06T13:54:40.379Z,101454.09
2023-01-06T13:57:45.481Z,101452.16
2023-01-06T14:01:07.202Z,101446.41
2023-01-06T14:04:43.604Z,101453.81
2023-01-06T14:07:55.076Z,101451.66
2023-01-06T14:11:21.393Z,101452.69
2023-01-06T14:14:29.811Z,101421.78
2023-01-06T14:17:42.029Z,101432.72
2023-01-06T14:20:46.048Z,101411.19
2023-01-06T14:27:47.182Z,101440.56
2023-01-06T14:30:52.870Z,101423.63
2023-01-06T14:37:44.098Z,101412.91
2023-01-06T14:41:02.150Z,101416.91
2023-01-06T14:44:13.029Z,101429.91
2023-01-06T14:47:35.638Z,101416.72
2023-01-06T14:50:47.960Z,101334.50
2023-01-06T14:53:58.938Z,101398.03
2023-01-06T14:57:06.949Z,101411.84
2023-01-06T15:00:28.095Z,101403.84
2023-01-06T15:03:33.385Z,101388.66
2023-01-06T15:06:37.615Z,101400.34
2023-01-06T15:09:42.135Z,101404.25
2023-01-06T15:12:56.738Z,101407.06
2023-01-06T15:16:04.932Z,101402.06
2023-01-06T15:19:13.519Z,101378.94
2023-01-06T15:22:22.744Z,101352.81
2023-01-06T15:25:30.412Z,101375.06
2023-01-06T15:28:36.412Z,101397.13
2023-01-06T15:31:42.214Z,101351.69
2023-01-06T15:34:47.709Z,101399.16
2023-01-06T15:38:00.757Z,101365.13
2023-01-06T15:41:06.909Z,101381.94
2023-01-06T15:44:30.811Z,101397.09
2023-01-06T15:47:36.873Z,101407.78
2023-01-06T15:50:41.236Z,101402.28
2023-01-06T15:53:47.214Z,101394.09
2023-01-06T15:56:51.881Z,101345.94
2023-01-06T16:00:05.232Z,101385.75
2023-01-06T16:03:24.030Z,101357.47
2023-01-06T16:06:41.597Z,101390.91
2023-01-06T16:09:46.106Z,101400.63
2023-01-06T16:13:04.519Z,101402.09
2023-01-06T16:16:17.924Z,101339.44
2023-01-06T16:19:23.850Z,101401.53
2023-01-06T16:22:37.046Z,101394.53
2023-01-06T16:25:41.340Z,101381.47
2023-01-06T16:28:50.489Z,101343.69
2023-01-06T16:31:54.743Z,101365.50
2023-01-06T16:35:06.041Z,101367.13
2023-01-06T16:38:10.509Z,101384.63
2023-01-06T16:41:18.924Z,101379.03
2023-01-06T16:44:23.245Z,101377.50
2023-01-06T16:47:27.633Z,101382.38
2023-01-06T16:50:41.201Z,101379.97
2023-01-06T16:53:46.287Z,101379.81
2023-01-06T16:56:52.929Z,101372.31
2023-01-06T16:59:57.280Z,101359.22
2023-01-06T17:03:01.844Z,101386.81
2023-01-06T17:06:21.686Z,101386.97
2023-01-06T17:09:26.825Z,101400.06
2023-01-06T17:12:49.735Z,101391.88
2023-01-06T17:16:01.761Z,101339.53
2023-01-06T17:19:22.152Z,101395.97
2023-01-06T17:22:33.046Z,101392.94
2023-01-06T17:25:37.569Z,101372.13
2023-01-06T17:29:15.195Z,101407.25
2023-01-06T17:32:24.549Z,101382.91
2023-01-06T17:35:33.696Z,101417.66
2023-01-06T17:38:40.419Z,101388.84
2023-01-06T17:41:44.853Z,101392.72
2023-01-06T17:44:56.127Z,101401.13
2023-01-06T17:48:01.075Z,101394.88
2023-01-06T17:51:05.608Z,101395.84
2023-01-06T17:54:37.008Z,101403.63
2023-01-06T17:57:45.154Z,101387.13
2023-01-06T18:00:51.434Z,101380.78
2023-01-06T18:03:58.846Z,101401.19
2023-01-06T18:07:10.573Z,101384.75
2023-01-06T18:10:20.355Z,101369.84
2023-01-06T18:13:37.494Z,101384.28
2023-01-06T18:16:42.188Z,101368.25
2023-01-06T18:19:46.706Z,101365.53
2023-01-06T18:22:51.098Z,101371.28
2023-01-06T18:26:07.861Z,101380.91
2023-01-06T18:29:20.449Z,101373.53
2023-01-06T18:32:37.421Z,101355.31
2023-01-06T18:35:43.868Z,101363.06
2023-01-06T18:38:48.306Z,101360.50
2023-01-06T18:42:06.121Z,101367.25
2023-01-06T18:45:17.539Z,101373.34
2023-01-06T18:48:33.416Z,101385.41
2023-01-06T18:51:37.941Z,101375.41
2023-01-06T18:54:42.393Z,101365.31
2023-01-06T18:57:52.977Z,101365.63
2023-01-06T19:01:00.063Z,101388.06
2023-01-06T19:04:33.618Z,101376.38
2023-01-06T19:07:38.000Z,101358.13
2023-01-06T19:10:41.976Z,101360.56
2023-01-06T19:13:47.710Z,101370.50
2023-01-06T19:16:57.536Z,101322.16
2023-01-06T19:20:11.632Z,101368.88
2023-01-06T19:23:21.819Z,101362.63
2023-01-06T19:26:33.667Z,101364.75
2023-01-06T19:29:37.995Z,101345.75
2023-01-06T19:32:42.129Z,101352.75
2023-01-06T19:35:47.427Z,101346.03
2023-01-06T19:38:51.874Z,101335.25
2023-01-06T19:42:02.529Z,101335.69
2023-01-06T19:45:16.806Z,101354.06
2023-01-06T19:48:32.944Z,101351.59
2023-01-06T19:51:37.594Z,101348.84
2023-01-06T19:54:42.950Z,101340.53
2023-01-06T19:58:00.908Z,101326.22
2023-01-06T20:01:05.403Z,101348.22
2023-01-06T20:04:39.245Z,101360.22
2023-01-06T20:07:43.644Z,101297.84
2023-01-06T20:10:48.047Z,101348.91
2023-01-06T20:13:53.027Z,101340.03
2023-01-06T20:16:57.956Z,101356.50
2023-01-06T20:20:02.262Z,101351.72
2023-01-06T20:23:06.983Z,101367.50
2023-01-06T20:26:11.815Z,101363.81
2023-01-06T20:29:16.251Z,101341.38
2023-01-06T20:32:20.933Z,101374.72
2023-01-06T20:35:25.396Z,101349.00
2023-01-06T20:38:29.332Z,101368.19
2023-01-06T20:41:33.652Z,101364.66
2023-01-06T20:44:37.711Z,101357.91
2023-01-06T20:47:42.719Z,101320.25
2023-01-06T20:50:47.012Z,101342.09
2023-01-06T20:53:51.423Z,101353.72
2023-01-06T20:56:55.865Z,101348.63
2023-01-06T21:00:00.225Z,101358.09
2023-01-06T21:03:04.801Z,101346.38
2023-01-06T21:06:09.691Z,101337.31
2023-01-06T21:09:14.260Z,101362.81
2023-01-06T21:12:18.794Z,101310.59
2023-01-06T21:15:23.159Z,101362.16
2023-01-06T21:18:27.719Z,101355.09
2023-01-06T21:21:32.567Z,101334.34
2023-01-06T21:24:36.959Z,101355.34
2023-01-06T21:27:41.347Z,101380.56
2023-01-06T21:30:47.101Z,101383.56
2023-01-06T21:33:51.497Z,101381.19
2023-01-06T21:36:56.046Z,101391.63
2023-01-06T21:40:00.521Z,101377.56
2023-01-06T21:43:11.049Z,101389.72
2023-01-06T21:46:15.550Z,101394.69
2023-01-06T21:49:19.970Z,101405.50
2023-01-06T21:52:24.467Z,101369.47
2023-01-06T21:55:29.057Z,101397.13
2023-01-06T21:58:33.593Z,101380.53
2023-01-06T22:01:38.043Z,101401.03
2023-01-06T22:04:44.195Z,101397.13
2023-01-06T22:07:53.024Z,101409.88
2023-01-06T22:10:57.685Z,101407.81
2023-01-06T22:14:02.367Z,101377.97
2023-01-06T22:17:07.870Z,101384.44
2023-01-06T22:20:14.293Z,101433.13
2023-01-06T22:23:22.408Z,101402.16
2023-01-06T22:26:26.952Z,101418.97
2023-01-06T22:29:31.340Z,101465.38
2023-01-06T22:32:47.106Z,101453.91
2023-01-06T22:35:51.567Z,101447.72
2023-01-06T22:38:56.180Z,101438.53
2023-01-06T22:42:05.845Z,101475.66
2023-01-06T22:45:11.546Z,101470.22
2023-01-06T22:48:16.118Z,101471.56
2023-01-06T22:51:20.619Z,101413.03
2023-01-06T22:54:25.599Z,101471.75
2023-01-06T22:57:30.182Z,101482.56
2023-01-06T23:00:34.602Z,101476.84
2023-01-06T23:03:39.448Z,101497.50
2023-01-06T23:06:44.014Z,101481.00
2023-01-06T23:09:48.504Z,101468.66
2023-01-06T23:12:53.782Z,101468.78
2023-01-06T23:16:12.189Z,101494.22
2023-01-06T23:19:18.450Z,101464.13
2023-01-06T23:22:22.875Z,101496.06
2023-01-06T23:25:26.857Z,101452.72
2023-01-06T23:28:31.046Z,101495.44
2023-01-06T23:31:38.679Z,101487.25
2023-01-06T23:34:42.760Z,101472.03
2023-01-06T23:37:47.074Z,101475.25
2023-01-06T23:40:50.630Z,101494.69
2023-01-06T23:43:56.585Z,101467.41
2023-01-06T23:47:00.513Z,101476.16
2023-01-06T23:50:04.795Z,101473.72
2023-01-06T23:53:08.818Z,101454.06
2023-01-06T23:56:21.785Z,101487.50
2023-01-06T23:59:25.734Z,101481.03
